Time;durP1;ratioP1;P1;durP2;ratioP2;P2;SDS_P1;SDS_P2;PMS_P1;PMS_P2;Temp;Humidity;BMP_temperature;BMP_pressure;BME280_temperature;BME280_humidity;BME280_pressure;Samples;Min_cycle;Max_cycle;Signal;HPM_P1;HPM_P2
2023/04/19 00:00:56;;;;;;;9.07;4.55;;;;;;;11.04;93.45;99288.88;3144300;28;20521;-73
2023/04/19 00:02:28;;;;;;;8.95;4.53;;;;;;;11.01;93.42;99282.06;3140030;28;20135;-71
2023/04/19 00:04:01;;;;;;;6.68;3.88;;;;;;;11.02;93.52;99288.94;3144656;28;20048;-71
2023/04/19 00:05:33;;;;;;;6.95;3.85;;;;;;;10.95;93.70;99276.34;3137844;28;20056;-71
2023/04/19 00:07:07;;;;;;;6.47;3.47;;;;;;;10.96;93.76;99276.25;3139863;28;20052;-71
2023/04/19 00:08:39;;;;;;;9.82;4.18;;;;;;;11.03;93.63;99281.97;3144368;28;20067;-71
2023/04/19 00:10:11;;;;;;;5.50;3.50;;;;;;;11.05;93.93;99285.34;3141705;28;20119;-70
2023/04/19 00:11:41;;;;;;;6.35;3.10;;;;;;;11.05;93.90;99280.94;3144482;28;20048;-70
2023/04/19 00:13:13;;;;;;;6.20;3.60;;;;;;;11.06;93.87;99269.63;3144506;28;20057;-70
2023/04/19 00:14:45;;;;;;;6.05;3.70;;;;;;;11.06;93.69;99269.63;3144412;28;20378;-70
2023/04/19 00:16:16;;;;;;;6.68;3.78;;;;;;;11.08;93.74;99264.31;3144526;28;20060;-70
2023/04/19 00:17:48;;;;;;;7.57;4.47;;;;;;;11.08;93.54;99270.38;3143248;28;20048;-70
2023/04/19 00:19:21;;;;;;;6.35;4.03;;;;;;;11.09;93.84;99259.03;3143848;28;20459;-69
2023/04/19 00:20:53;;;;;;;7.15;3.42;;;;;;;11.10;93.93;99259.88;3140950;28;20488;-70
2023/04/19 00:22:26;;;;;;;7.28;4.30;;;;;;;11.12;93.71;99261.47;3141651;28;20583;-70
2023/04/19 00:23:58;;;;;;;7.38;4.10;;;;;;;11.11;93.77;99253.72;3141727;28;20132;-71
2023/04/19 00:25:30;;;;;;;9.73;4.47;;;;;;;11.12;93.86;99258.00;3140536;28;20468;-71
2023/04/19 00:27:02;;;;;;;5.97;4.20;;;;;;;11.10;93.47;99249.44;3144586;28;20045;-70
2023/04/19 00:28:33;;;;;;;7.97;4.72;;;;;;;11.10;93.58;99250.28;3144078;28;20045;-70
2023/04/19 00:30:06;;;;;;;8.35;4.63;;;;;;;11.04;93.70;99228.94;3140252;28;20182;-72
2023/04/19 00:31:39;;;;;;;6.85;4.05;;;;;;;11.12;93.89;99252.78;3144655;28;20056;-72
2023/04/19 00:33:12;;;;;;;8.00;5.03;;;;;;;11.10;93.70;99250.28;3139820;28;20048;-72
2023/04/19 00:34:43;;;;;;;11.82;5.65;;;;;;;11.10;93.88;99246.84;3132560;28;20048;-72
2023/04/19 00:36:15;;;;;;;9.25;4.82;;;;;;;11.10;93.78;99246.84;3135614;28;20045;-73
2023/04/19 00:37:48;;;;;;;10.95;5.55;;;;;;;11.11;93.79;99246.75;3143557;28;20433;-72
2023/04/19 00:39:20;;;;;;;6.82;4.53;;;;;;;11.09;94.01;99246.00;3134550;28;20053;-73
2023/04/19 00:40:51;;;;;;;8.77;4.18;;;;;;;11.08;93.84;99246.06;3144446;28;20461;-72
2023/04/19 00:42:22;;;;;;;7.32;4.40;;;;;;;11.12;93.75;99244.97;3144056;28;20048;-73
2023/04/19 00:43:55;;;;;;;8.45;4.75;;;;;;;11.12;93.81;99247.56;3142060;28;20048;-73
2023/04/19 00:45:26;;;;;;;8.88;4.25;;;;;;;11.05;93.56;99234.06;3144184;28;20501;-72
2023/04/19 00:46:59;;;;;;;8.73;4.32;;;;;;;11.09;93.61;99242.53;3144104;28;20048;-72
2023/04/19 00:48:31;;;;;;;9.07;4.35;;;;;;;11.09;93.65;99250.34;3143919;28;20086;-72
2023/04/19 00:50:04;;;;;;;6.93;4.45;;;;;;;11.07;94.09;99245.25;3137977;28;20041;-72
2023/04/19 00:51:36;;;;;;;8.15;4.35;;;;;;;11.09;94.00;99242.53;3141930;28;20053;-72
2023/04/19 00:53:09;;;;;;;5.93;4.03;;;;;;;11.09;94.04;99247.75;3142260;28;20040;-71
2023/04/19 00:54:42;;;;;;;6.13;3.90;;;;;;;10.79;93.76;99193.00;3144213;28;20056;-72
2023/04/19 00:56:15;;;;;;;6.60;3.83;;;;;;;11.05;93.76;99243.63;3144095;28;20071;-70
2023/04/19 00:57:47;;;;;;;6.93;3.83;;;;;;;11.05;93.69;99247.09;3135962;28;20080;-70
2023/04/19 00:59:19;;;;;;;6.47;3.53;;;;;;;11.05;94.05;99241.03;3138451;28;20044;-70
2023/04/19 01:00:50;;;;;;;6.90;3.45;;;;;;;11.03;93.71;99243.75;3145253;28;20048;-72
2023/04/19 01:02:21;;;;;;;6.20;3.83;;;;;;;10.84;93.96;99212.66;3143435;28;20132;-71
2023/04/19 01:03:53;;;;;;;7.57;3.67;;;;;;;10.99;93.59;99234.41;3142202;28;20052;-71
2023/04/19 01:05:24;;;;;;;6.10;2.70;;;;;;;11.00;93.56;99235.22;3136729;28;20048;-71
2023/04/19 01:06:56;;;;;;;4.07;2.60;;;;;;;11.01;93.62;99240.38;3136564;28;20078;-72
2023/04/19 01:08:28;;;;;;;4.68;2.67;;;;;;;11.02;93.75;99243.81;3146503;28;20442;-71
2023/04/19 01:10:00;;;;;;;5.47;3.05;;;;;;;11.02;93.87;99236.84;3146101;28;20091;-71
2023/04/19 01:11:32;;;;;;;4.30;2.70;;;;;;;10.81;93.67;99204.16;3146192;28;20056;-72
2023/04/19 01:13:04;;;;;;;5.68;2.15;;;;;;;10.99;93.79;99228.34;3146197;28;20529;-72
2023/04/19 01:14:35;;;;;;;4.03;2.35;;;;;;;10.93;93.46;99214.75;3146282;28;20767;-72
2023/04/19 01:16:08;;;;;;;5.32;2.88;;;;;;;11.05;93.77;99230.63;3146036;28;20131;-72
2023/04/19 01:17:39;;;;;;;5.18;2.13;;;;;;;11.02;93.38;99223.81;3146000;28;20060;-72
2023/04/19 01:19:11;;;;;;;2.60;1.70;;;;;;;11.03;93.61;99225.50;3144829;28;20546;-71
2023/04/19 01:20:43;;;;;;;3.80;2.10;;;;;;;11.06;93.61;99227.06;3136476;28;20450;-72
2023/04/19 01:22:21;;;;;;;4.25;1.92;;;;;;;11.01;93.23;99213.47;3142540;28;20044;-71
2023/04/19 01:23:53;;;;;;;3.88;1.92;;;;;;;11.06;93.24;99227.94;3146208;28;20135;-71
2023/04/19 01:25:25;;;;;;;3.05;2.10;;;;;;;11.05;93.43;99222.78;3146105;28;20052;-71
2023/04/19 01:26:56;;;;;;;3.25;1.88;;;;;;;10.99;93.32;99213.56;3146076;28;20094;-71
2023/04/19 01:28:28;;;;;;;2.72;1.77;;;;;;;11.01;93.33;99211.72;3145275;28;20128;-71
2023/04/19 01:29:59;;;;;;;3.70;1.70;;;;;;;11.09;93.28;99219.09;3141587;28;20098;-71
2023/04/19 01:31:30;;;;;;;3.20;1.63;;;;;;;11.09;93.17;99219.94;3146026;28;20101;-70
2023/04/19 01:33:02;;;;;;;2.13;1.52;;;;;;;11.08;92.94;99217.41;3145825;28;20557;-71
2023/04/19 01:34:33;;;;;;;2.70;1.67;;;;;;;11.10;92.99;99219.00;3138478;28;20052;-71
2023/04/19 01:36:06;;;;;;;3.38;1.50;;;;;;;11.10;92.95;99216.41;3134907;28;20056;-71
2023/04/19 01:37:39;;;;;;;4.10;1.30;;;;;;;11.11;92.53;99212.84;3146330;28;20049;-72
2023/04/19 01:39:10;;;;;;;3.72;1.60;;;;;;;11.10;92.70;99210.34;3136634;28;20642;-71
2023/04/19 01:40:42;;;;;;;2.78;1.27;;;;;;;11.10;92.75;99210.34;3145796;28;20105;-71
2023/04/19 01:42:13;;;;;;;1.88;1.30;;;;;;;11.08;92.64;99207.00;3121176;28;20049;-71
2023/04/19 01:43:44;;;;;;;3.13;1.60;;;;;;;11.12;92.49;99206.75;3142991;28;20079;-71
2023/04/19 01:45:17;;;;;;;3.58;2.53;;;;;;;11.11;92.26;99210.25;3143078;28;20052;-70
2023/04/19 01:46:48;;;;;;;3.20;1.42;;;;;;;11.10;92.31;99205.97;3145750;28;20445;-71
2023/04/19 01:48:20;;;;;;;2.35;1.50;;;;;;;11.08;92.03;99207.81;3142761;28;20056;-71
2023/04/19 01:49:52;;;;;;;2.22;1.13;;;;;;;11.07;92.33;99207.94;3134033;28;20052;-71
2023/04/19 01:51:24;;;;;;;1.88;1.27;;;;;;;11.10;92.13;99213.78;3141491;28;20114;-71
2023/04/19 01:52:58;;;;;;;3.90;1.25;;;;;;;11.10;92.02;99205.16;3145628;28;20056;-70
2023/04/19 01:54:29;;;;;;;2.08;1.30;;;;;;;11.08;91.93;99210.44;3146284;28;20147;-70
2023/04/19 01:56:01;;;;;;;2.28;1.33;;;;;;;10.88;91.90;99163.81;3145706;28;20143;-70
2023/04/19 01:57:32;;;;;;;1.88;1.40;;;;;;;11.00;92.09;99193.56;3145642;28;20139;-71
2023/04/19 01:59:04;;;;;;;2.00;1.40;;;;;;;11.05;91.58;99199.34;3145552;28;20051;-70
2023/04/19 02:00:36;;;;;;;1.67;1.10;;;;;;;11.05;91.83;99191.53;3145616;28;20052;-70
2023/04/19 02:02:08;;;;;;;2.05;1.10;;;;;;;11.04;91.64;99195.06;3140929;28;20366;-70
2023/04/19 02:03:40;;;;;;;2.13;1.35;;;;;;;10.95;91.67;99185.19;3131005;28;20449;-72
2023/04/19 02:05:12;;;;;;;2.15;1.15;;;;;;;10.99;91.36;99191.88;3139540;28;20053;-72
2023/04/19 02:06:43;;;;;;;2.50;1.30;;;;;;;11.00;91.42;99191.78;3145451;28;20121;-72
2023/04/19 02:08:16;;;;;;;1.90;1.38;;;;;;;10.99;91.32;99191.88;3145984;28;20065;-72
2023/04/19 02:09:48;;;;;;;3.13;1.55;;;;;;;10.96;91.38;99189.44;3145713;28;20041;-72
2023/04/19 02:11:20;;;;;;;2.30;1.33;;;;;;;10.98;91.49;99193.66;3145516;28;20053;-70
2023/04/19 02:12:52;;;;;;;2.80;1.50;;;;;;;10.96;91.46;99192.88;3144337;28;20499;-70
2023/04/19 02:14:23;;;;;;;2.67;1.42;;;;;;;10.87;91.33;99177.78;3145207;28;20049;-70
2023/04/19 02:15:54;;;;;;;2.08;1.40;;;;;;;10.95;91.32;99190.38;3145239;28;20163;-70
2023/04/19 02:17:25;;;;;;;3.05;1.52;;;;;;;10.95;91.00;99187.78;3143466;28;20048;-70
2023/04/19 02:18:57;;;;;;;2.50;1.58;;;;;;;10.88;91.39;99176.84;3140754;28;20105;-71
2023/04/19 02:20:30;;;;;;;3.10;1.63;;;;;;;10.89;91.22;99181.16;3142433;28;20082;-70
2023/04/19 02:22:02;;;;;;;3.15;1.75;;;;;;;10.91;91.04;99187.09;3145681;28;20060;-70
2023/04/19 02:23:35;;;;;;;4.38;1.50;;;;;;;10.89;91.04;99187.19;3145828;28;20155;-71
2023/04/19 02:25:07;;;;;;;;;;;;;;;10.80;91.09;99184.28;3145709;28;20048;-70
2023/04/19 02:26:38;;;;;;;3.60;1.98;;;;;;;10.79;91.49;99179.97;3137653;28;19925;-69
2023/04/19 02:28:10;;;;;;;3.05;1.65;;;;;;;10.69;91.23;99153.59;3145074;28;20055;-68
2023/04/19 02:29:41;;;;;;;2.05;1.35;;;;;;;10.79;91.36;99179.97;3141844;28;20054;-68
2023/04/19 02:31:13;;;;;;;1.88;1.33;;;;;;;10.79;91.29;99177.38;3139069;28;20068;-69
2023/04/19 02:32:44;;;;;;;3.58;1.45;;;;;;;10.79;91.46;99174.75;3140605;28;20052;-69
2023/04/19 02:34:17;;;;;;;2.33;1.65;;;;;;;10.70;91.24;99163.91;3145036;28;20059;-69
2023/04/19 02:35:49;;;;;;;1.70;1.05;;;;;;;10.79;91.27;99177.38;3132983;28;20118;-69
2023/04/19 02:37:21;;;;;;;2.63;1.55;;;;;;;10.76;91.23;99174.94;3120463;28;20452;-69
2023/04/19 02:38:54;;;;;;;3.97;1.40;;;;;;;10.79;91.20;99178.19;3136471;28;20143;-69
2023/04/19 02:40:25;;;;;;;6.45;4.32;;;;;;;10.79;91.34;99177.38;3143910;28;20065;-69
2023/04/19 02:41:57;;;;;;;6.47;3.88;;;;;;;10.77;91.22;99179.25;3145040;28;20116;-70
2023/04/19 02:43:27;;;;;;;2.33;1.70;;;;;;;10.78;91.55;99173.91;3144542;28;20102;-69
2023/04/19 02:44:59;;;;;;;2.92;1.75;;;;;;;10.82;91.18;99177.19;3133681;28;21088;-69
2023/04/19 02:46:31;;;;;;;3.42;1.88;;;;;;;10.83;91.39;99173.69;3140712;28;20052;-69
2023/04/19 02:48:03;;;;;;;2.90;2.30;;;;;;;10.82;91.43;99172.81;3140779;28;20052;-69
2023/04/19 02:49:35;;;;;;;3.55;1.70;;;;;;;10.83;91.39;99171.06;3142392;28;20044;-69
2023/04/19 02:51:06;;;;;;;3.20;1.80;;;;;;;10.71;91.28;99151.78;3137882;28;20059;-69
2023/04/19 02:52:38;;;;;;;2.47;1.65;;;;;;;10.81;91.47;99176.34;3144967;28;20048;-69
2023/04/19 02:54:12;;;;;;;2.60;1.70;;;;;;;10.72;91.57;99155.19;3144985;28;20041;-69
2023/04/19 02:55:43;;;;;;;2.17;1.67;;;;;;;10.80;91.55;99173.84;3144666;28;20059;-69
2023/04/19 02:57:15;;;;;;;3.15;2.05;;;;;;;10.78;91.34;99170.47;3139570;28;20423;-69
2023/04/19 02:58:47;;;;;;;5.00;2.05;;;;;;;10.80;91.34;99173.84;3134716;28;20049;-69
2023/04/19 03:00:18;;;;;;;3.15;2.30;;;;;;;10.81;91.56;99178.13;3144547;28;20491;-70
2023/04/19 03:01:50;;;;;;;3.58;1.83;;;;;;;10.81;91.58;99172.91;3140260;28;20080;-70
2023/04/19 03:03:22;;;;;;;2.33;1.45;;;;;;;10.82;91.31;99178.03;3143248;28;20060;-70
2023/04/19 03:04:54;;;;;;;2.38;1.58;;;;;;;10.80;91.62;99171.25;3131793;28;20056;-70
2023/04/19 03:06:26;;;;;;;2.33;1.48;;;;;;;10.79;91.40;99178.19;3136078;28;20537;-70
2023/04/19 03:07:57;;;;;;;3.05;1.85;;;;;;;10.79;91.16;99182.56;3143179;28;20521;-71
2023/04/19 03:09:31;;;;;;;5.40;1.70;;;;;;;10.77;91.06;99177.47;3144738;28;20063;-68
2023/04/19 03:11:03;;;;;;;2.60;1.50;;;;;;;10.77;91.23;99179.25;3144742;28;20505;-69
2023/04/19 03:12:34;;;;;;;2.72;1.38;;;;;;;10.74;91.14;99171.56;3143141;28;20461;-69
2023/04/19 03:14:06;;;;;;;2.90;1.30;;;;;;;10.74;91.11;99179.38;3140447;28;20044;-68
2023/04/19 03:15:37;;;;;;;2.90;1.30;;;;;;;10.73;90.72;99181.16;3144736;28;20045;-69
2023/04/19 03:17:09;;;;;;;3.33;1.20;;;;;;;10.73;90.69;99175.09;3140070;28;20044;-69
2023/04/19 03:18:41;;;;;;;3.25;1.58;;;;;;;10.72;90.71;99178.66;3144661;28;20048;-68
2023/04/19 03:20:13;;;;;;;2.80;1.55;;;;;;;10.72;90.45;99184.69;3142359;28;20040;-68
2023/04/19 03:21:45;;;;;;;3.83;1.40;;;;;;;10.71;90.54;99177.81;3141546;28;21222;-70
2023/04/19 03:23:16;;;;;;;1.92;1.23;;;;;;;10.70;90.70;99182.16;3135452;28;20048;-68
2023/04/19 03:24:49;;;;;;;2.30;1.40;;;;;;;10.72;90.51;99178.66;3144570;28;20053;-69
2023/04/19 03:26:21;;;;;;;2.80;1.85;;;;;;;10.69;90.33;99180.47;3144534;28;20449;-69
2023/04/19 03:27:53;;;;;;;3.58;1.77;;;;;;;10.69;90.32;99175.28;3133778;28;20053;-69
2023/04/19 03:29:25;;;;;;;2.42;1.40;;;;;;;10.69;90.23;99177.88;3140905;28;20538;-69
2023/04/19 03:30:57;;;;;;;5.70;1.95;;;;;;;10.62;90.21;99167.91;3139629;28;20044;-68
2023/04/19 03:32:29;;;;;;;4.82;1.50;;;;;;;10.69;90.28;99171.84;3144582;28;20052;-69
2023/04/19 03:34:01;;;;;;;3.45;1.83;;;;;;;10.68;90.03;99176.22;3144682;28;20052;-70
2023/04/19 03:35:31;;;;;;;2.38;1.40;;;;;;;10.68;89.99;99167.56;3133985;28;20522;-69
2023/04/19 03:37:03;;;;;;;3.58;1.58;;;;;;;10.68;89.96;99171.00;3142545;28;20052;-69
2023/04/19 03:38:35;;;;;;;3.67;1.65;;;;;;;10.73;90.12;99180.31;3139558;28;20049;-68
2023/04/19 03:40:09;;;;;;;3.50;1.83;;;;;;;10.72;89.83;99182.09;3140867;28;20509;-69
2023/04/19 03:41:40;;;;;;;2.70;1.48;;;;;;;10.72;89.53;99181.25;3143347;28;20083;-68
2023/04/19 03:43:12;;;;;;;2.20;1.20;;;;;;;10.70;89.82;99176.09;3144394;28;20056;-69
2023/04/19 03:44:43;;;;;;;3.40;1.27;;;;;;;10.67;89.63;99174.50;3140615;28;20048;-68
2023/04/19 03:46:15;;;;;;;2.70;1.40;;;;;;;10.69;89.32;99180.47;3140181;28;20134;-68
2023/04/19 03:47:47;;;;;;;2.67;1.45;;;;;;;10.70;89.35;99178.72;3144443;28;20044;-69
2023/04/19 03:49:19;;;;;;;2.40;1.05;;;;;;;10.67;89.33;99171.91;3144229;28;20068;-69
2023/04/19 03:50:50;;;;;;;2.40;1.08;;;;;;;10.69;89.21;99177.88;3144351;28;20064;-69
2023/04/19 03:52:24;;;;;;;3.28;1.45;;;;;;;10.71;88.85;99180.41;3144176;28;20052;-69
2023/04/19 03:53:55;;;;;;;2.50;1.20;;;;;;;10.70;88.89;99176.94;3144343;28;20049;-69
2023/04/19 03:55:28;;;;;;;4.47;1.30;;;;;;;10.64;89.16;99169.47;3139657;28;20049;-69
2023/04/19 03:56:59;;;;;;;3.13;1.42;;;;;;;10.70;88.86;99182.16;3144542;28;20132;-68
2023/04/19 03:58:31;;;;;;;3.85;1.70;;;;;;;10.72;88.70;99183.84;3133942;28;20127;-68
2023/04/19 04:00:05;;;;;;;2.22;1.30;;;;;;;10.69;89.07;99177.88;3131777;28;20106;-69
2023/04/19 04:01:40;;;;;;;2.78;1.50;;;;;;;10.73;88.88;99188.13;3122310;28;20045;-68
2023/04/19 04:03:12;;;;;;;4.18;1.67;;;;;;;10.70;88.72;99184.75;3132075;28;20465;-69
2023/04/19 04:04:44;;;;;;;3.55;1.45;;;;;;;10.73;88.62;99186.34;3140246;28;20056;-69
2023/04/19 04:06:16;;;;;;;2.45;1.30;;;;;;;10.70;88.61;99179.53;3142863;28;20057;-68
2023/04/19 04:07:48;;;;;;;2.80;1.30;;;;;;;10.75;88.42;99181.06;3144638;28;20052;-68
2023/04/19 04:09:20;;;;;;;5.53;1.48;;;;;;;10.77;88.37;99192.25;3138767;28;20492;-69
2023/04/19 04:10:53;;;;;;;2.33;1.10;;;;;;;10.75;88.43;99179.31;3140380;28;20044;-69
2023/04/19 04:12:24;;;;;;;;;;;;;;;10.69;88.50;99180.47;3144543;28;20048;-68
2023/04/19 04:13:55;;;;;;;1.77;1.10;;;;;;;10.70;88.38;99184.75;3143873;28;19931;-69
2023/04/19 04:15:27;;;;;;;1.98;1.10;;;;;;;10.73;88.46;99182.91;3137013;28;20075;-71
2023/04/19 04:16:58;;;;;;;2.10;1.05;;;;;;;10.74;88.24;99185.44;3144266;28;20041;-71
2023/04/19 04:18:30;;;;;;;1.65;1.10;;;;;;;10.76;88.02;99187.94;3139011;28;20052;-68
2023/04/19 04:20:03;;;;;;;2.53;1.20;;;;;;;10.78;88.02;99178.28;3139321;28;20049;-70
2023/04/19 04:21:35;;;;;;;1.70;1.30;;;;;;;10.77;87.90;99181.84;3144082;28;20205;-69
2023/04/19 04:23:07;;;;;;;1.67;1.10;;;;;;;10.78;88.01;99178.28;3142668;28;20124;-69
2023/04/19 04:24:40;;;;;;;1.33;1.00;;;;;;;10.77;88.11;99180.06;3144599;28;20056;-69
2023/04/19 04:26:12;;;;;;;1.75;1.05;;;;;;;10.77;88.00;99174.03;3143935;28;20130;-68
2023/04/19 04:27:45;;;;;;;2.28;1.33;;;;;;;10.81;87.76;99185.94;3143949;28;20184;-68
2023/04/19 04:29:17;;;;;;;2.33;1.52;;;;;;;10.81;87.45;99178.97;3140831;28;20045;-71
2023/04/19 04:30:48;;;;;;;2.40;1.20;;;;;;;10.81;87.57;99175.53;3142003;28;20052;-69
2023/04/19 04:32:21;;;;;;;2.17;1.33;;;;;;;10.86;87.47;99178.72;3144247;28;20056;-73
2023/04/19 04:33:53;;;;;;;2.00;1.13;;;;;;;10.87;87.53;99180.38;3143641;28;20080;-70
2023/04/19 04:35:28;;;;;;;3.40;1.60;;;;;;;10.87;87.40;99180.38;3143147;28;20458;-73
2023/04/19 04:37:00;;;;;;;7.50;4.72;;;;;;;10.86;87.36;99173.50;3144305;28;20068;-71
2023/04/19 04:38:32;;;;;;;7.07;3.30;;;;;;;10.89;87.64;99176.78;3130811;28;20567;-71
2023/04/19 04:40:05;;;;;;;18.52;10.00;;;;;;;10.92;87.43;99183.56;3133865;28;20045;-71
2023/04/19 04:41:41;;;;;;;4.20;2.40;;;;;;;10.93;87.56;99188.69;3138916;28;20041;-69
2023/04/19 04:43:12;;;;;;;3.70;2.20;;;;;;;10.86;87.73;99174.34;3146604;28;20124;-71
2023/04/19 04:44:46;;;;;;;15.27;8.73;;;;;;;10.97;87.71;99191.13;3141148;28;20044;-66
2023/04/19 04:46:17;;;;;;;4.93;2.75;;;;;;;10.95;87.30;99179.97;3146507;28;20055;-65
2023/04/19 04:47:50;;;;;;;11.02;5.60;;;;;;;10.99;87.19;99189.28;3145824;28;20538;-65
2023/04/19 04:49:22;;;;;;;6.55;3.25;;;;;;;11.03;87.34;99186.41;3121968;28;20458;-64
2023/04/19 04:50:53;;;;;;;7.20;2.60;;;;;;;11.06;87.45;99191.47;3145194;28;20094;-68
2023/04/19 04:52:25;;;;;;;8.98;2.50;;;;;;;11.09;87.04;99191.28;3144914;28;20059;-69
2023/04/19 04:53:57;;;;;;;4.32;2.33;;;;;;;11.09;87.28;99188.69;3146114;28;20056;-70
2023/04/19 04:55:29;;;;;;;3.72;2.40;;;;;;;11.14;87.00;99191.84;3145416;28;20118;-70
2023/04/19 04:57:06;;;;;;;22.60;13.57;;;;;;;11.16;86.57;99186.56;3134631;28;20044;-70
2023/04/19 04:58:40;;;;;;;9.93;5.47;;;;;;;11.15;86.92;99184.84;3138411;28;20055;-71
2023/04/19 05:00:13;;;;;;;18.00;11.05;;;;;;;11.17;86.48;99183.00;3138909;28;20131;-71
2023/04/19 05:01:45;;;;;;;7.55;3.03;;;;;;;11.20;86.75;99182.00;3141748;28;20191;-70
2023/04/19 05:03:18;;;;;;;5.30;2.53;;;;;;;11.27;86.72;99191.13;3137395;28;20075;-71
2023/04/19 05:04:50;;;;;;;3.38;2.20;;;;;;;11.27;86.56;99189.38;3144838;28;20044;-69
2023/04/19 05:06:22;;;;;;;3.85;2.10;;;;;;;11.30;86.24;99189.22;3136942;28;20527;-71
2023/04/19 05:07:54;;;;;;;4.03;1.80;;;;;;;11.29;85.85;99187.50;3145063;28;20148;-70
2023/04/19 05:09:26;;;;;;;3.70;2.42;;;;;;;11.34;85.75;99195.06;3145856;28;20075;-69
2023/04/19 05:10:58;;;;;;;3.53;1.60;;;;;;;11.27;85.55;99180.69;3145642;28;20051;-69
2023/04/19 05:12:32;;;;;;;2.70;1.58;;;;;;;11.35;85.34;99191.53;3141366;28;20132;-69
2023/04/19 05:14:05;;;;;;;2.30;1.35;;;;;;;11.39;85.44;99196.50;3130325;28;20464;-68
2023/04/19 05:15:37;;;;;;;2.70;1.50;;;;;;;11.42;85.04;99190.25;3140241;28;20713;-73
2023/04/19 05:17:09;;;;;;;2.50;1.40;;;;;;;11.45;85.21;99189.25;3134083;28;20052;-73
2023/04/19 05:18:41;;;;;;;2.90;1.45;;;;;;;11.42;84.68;99190.25;3146803;28;20136;-71
2023/04/19 05:20:13;;;;;;;2.08;1.40;;;;;;;11.48;84.77;99200.34;3134996;28;20059;-70
2023/04/19 05:21:45;;;;;;;2.00;1.45;;;;;;;11.50;84.33;99195.84;3144957;28;20052;-69
2023/04/19 05:23:17;;;;;;;1.70;1.27;;;;;;;11.52;84.03;99199.22;3146123;28;20189;-69
2023/04/19 05:24:50;;;;;;;1.85;1.35;;;;;;;11.50;83.95;99185.41;3146205;28;20114;-68
2023/04/19 05:26:22;;;;;;;2.28;1.23;;;;;;;11.56;83.83;99195.47;3145885;28;20453;-69
2023/04/19 05:27:56;;;;;;;2.05;1.40;;;;;;;11.37;83.74;99158.41;3146067;28;20114;-68
2023/04/19 05:29:28;;;;;;;3.78;1.45;;;;;;;11.60;83.46;99198.78;3135523;28;20083;-69
2023/04/19 05:31:00;;;;;;;2.33;1.50;;;;;;;11.59;83.37;99190.13;3146033;28;20605;-67
2023/04/19 05:32:32;;;;;;;1.75;1.15;;;;;;;11.58;83.03;99201.47;3132101;28;20101;-71
2023/04/19 05:34:04;;;;;;;4.07;1.20;;;;;;;11.66;82.95;99198.41;3140241;28;20052;-68
2023/04/19 05:35:36;;;;;;;4.20;1.60;;;;;;;11.68;82.94;99198.31;3136973;28;20109;-70
2023/04/19 05:37:08;;;;;;;3.17;1.50;;;;;;;11.69;82.87;99198.22;3145907;28;20223;-70
2023/04/19 05:38:40;;;;;;;2.75;1.30;;;;;;;11.72;82.67;99202.44;3140434;28;20044;-70
2023/04/19 05:40:12;;;;;;;2.35;1.33;;;;;;;11.72;82.42;99199.81;3145921;28;20053;-74
2023/04/19 05:41:45;;;;;;;3.45;1.65;;;;;;;11.74;82.43;99206.63;3145938;28;20059;-73
2023/04/19 05:43:17;;;;;;;3.50;1.52;;;;;;;11.76;82.24;99198.69;3145570;28;20106;-74
2023/04/19 05:44:49;;;;;;;2.10;1.20;;;;;;;11.76;82.36;99198.69;3133456;28;20481;-70
2023/04/19 05:46:21;;;;;;;3.60;1.35;;;;;;;11.80;82.24;99208.00;3142109;28;20056;-69
2023/04/19 05:47:53;;;;;;;2.95;1.40;;;;;;;11.81;81.91;99209.69;3139448;28;20052;-71
2023/04/19 05:49:25;;;;;;;2.05;1.15;;;;;;;11.81;81.54;99196.66;3141622;28;20052;-70
2023/04/19 05:50:58;;;;;;;3.70;1.50;;;;;;;11.80;81.59;99201.03;3133268;28;20045;-69
2023/04/19 05:52:30;;;;;;;3.75;0.95;;;;;;;11.85;81.57;99200.78;3140834;28;20143;-72
2023/04/19 05:54:02;;;;;;;2.20;1.15;;;;;;;11.85;81.20;99203.38;3145846;28;20483;-72
2023/04/19 05:55:34;;;;;;;2.03;1.20;;;;;;;11.88;81.01;99204.97;3145713;28;20101;-71
2023/04/19 05:57:06;;;;;;;3.17;1.30;;;;;;;11.88;80.90;99200.59;3141975;28;20491;-69
2023/04/19 05:58:39;;;;;;;1.63;1.08;;;;;;;11.92;80.88;99199.50;3145332;28;20590;-71
2023/04/19 06:00:12;;;;;;;2.20;1.40;;;;;;;11.92;80.60;99198.63;3141760;28;20517;-74
2023/04/19 06:01:46;;;;;;;2.28;1.27;;;;;;;11.96;80.63;99200.97;3141414;28;20048;-68
2023/04/19 06:03:18;;;;;;;3.70;1.42;;;;;;;11.94;80.58;99195.00;3136896;28;20135;-69
2023/04/19 06:04:51;;;;;;;2.88;1.35;;;;;;;11.99;80.24;99198.19;3144664;28;20055;-72
2023/04/19 06:06:23;;;;;;;2.20;1.38;;;;;;;11.98;80.33;99201.75;3145286;28;20056;-70
2023/04/19 06:07:55;;;;;;;2.50;1.50;;;;;;;12.02;80.07;99198.00;3145251;28;20045;-70
2023/04/19 06:09:28;;;;;;;4.47;1.73;;;;;;;12.04;79.69;99196.16;3136100;28;20065;-66
2023/04/19 06:11:00;;;;;;;2.72;1.50;;;;;;;12.06;79.80;99196.88;3133632;28;20098;-70
2023/04/19 06:12:32;;;;;;;2.55;1.27;;;;;;;12.09;79.42;99193.25;3140606;28;20049;-69
2023/04/19 06:14:06;;;;;;;2.92;1.42;;;;;;;12.13;79.24;99196.53;3141542;28;20076;-69
2023/04/19 06:15:38;;;;;;;;;;;;;;;12.09;79.28;99188.03;3124328;28;20141;-67
2023/04/19 06:17:10;;;;;;;3.90;1.45;;;;;;;12.12;79.41;99195.66;3144974;28;20383;-67
2023/04/19 06:18:43;;;;;;;1.85;1.10;;;;;;;12.13;79.09;99192.13;3145412;28;20483;-72
2023/04/19 06:20:15;;;;;;;3.05;1.17;;;;;;;12.19;78.88;99194.38;3137423;28;20059;-68
2023/04/19 06:21:48;;;;;;;4.38;1.17;;;;;;;12.23;78.57;99187.19;3142374;28;20101;-68
2023/04/19 06:23:20;;;;;;;2.05;1.10;;;;;;;12.27;78.25;99193.88;3142718;28;20056;-68
2023/04/19 06:24:52;;;;;;;3.05;1.35;;;;;;;12.30;78.13;99193.69;3135929;28;20048;-67
2023/04/19 06:26:24;;;;;;;2.10;1.45;;;;;;;12.33;78.05;99196.09;3144929;28;20053;-69
2023/04/19 06:27:56;;;;;;;4.07;1.30;;;;;;;12.33;77.71;99188.28;3145519;28;20056;-68
2023/04/19 06:29:29;;;;;;;3.20;1.20;;;;;;;12.42;77.72;99192.94;3135093;28;20122;-68
2023/04/19 06:31:02;;;;;;;1.52;0.93;;;;;;;12.43;77.50;99184.19;3145332;28;20049;-67
2023/04/19 06:32:34;;;;;;;2.45;1.17;;;;;;;12.49;77.40;99196.84;3145259;28;20063;-68
2023/04/19 06:34:06;;;;;;;4.55;1.00;;;;;;;12.55;77.34;99200.00;3120452;28;20147;-72
2023/04/19 06:35:39;;;;;;;1.90;1.08;;;;;;;12.58;77.03;99208.50;3133380;28;20488;-68
2023/04/19 06:37:11;;;;;;;2.22;1.08;;;;;;;12.60;76.67;99198.78;3144277;28;20048;-68
2023/04/19 06:38:45;;;;;;;2.30;1.20;;;;;;;12.61;76.39;99197.00;3138732;28;20072;-66
2023/04/19 06:40:17;;;;;;;3.50;1.10;;;;;;;12.65;76.18;99198.47;3143141;28;20083;-67
2023/04/19 06:41:49;;;;;;;2.92;1.20;;;;;;;12.67;75.68;99201.84;3145459;28;20525;-68
2023/04/19 06:43:21;;;;;;;3.03;1.45;;;;;;;12.70;75.54;99205.09;3145013;28;20062;-69
2023/04/19 06:44:55;;;;;;;2.28;0.95;;;;;;;12.73;75.39;99204.06;3138852;28;20052;-68
2023/04/19 06:46:27;;;;;;;1.60;1.00;;;;;;;12.78;75.16;99209.84;3138271;28;20438;-70
2023/04/19 06:48:00;;;;;;;2.75;1.08;;;;;;;12.82;74.93;99206.09;3140282;28;20127;-70
2023/04/19 06:49:32;;;;;;;1.90;1.20;;;;;;;12.89;74.77;99217.81;3142563;28;20048;-70
2023/04/19 06:51:04;;;;;;;4.00;1.17;;;;;;;12.97;74.52;99212.13;3142909;28;20109;-70
2023/04/19 06:52:36;;;;;;;1.85;1.23;;;;;;;13.05;74.35;99209.03;3139616;28;20107;-68
2023/04/19 06:54:08;;;;;;;2.20;1.05;;;;;;;13.14;74.28;99219.72;3132787;28;20076;-71
2023/04/19 06:55:40;;;;;;;1.85;0.98;;;;;;;13.25;73.74;99212.94;3140620;28;20062;-75
2023/04/19 06:57:12;;;;;;;2.88;1.08;;;;;;;13.37;73.54;99210.41;3145275;28;20044;-73
2023/04/19 06:58:44;;;;;;;3.90;1.00;;;;;;;13.49;73.43;99215.72;3133772;28;20053;-68
2023/04/19 07:00:18;;;;;;;1.92;1.20;;;;;;;13.61;73.20;99214.94;3138164;28;20063;-69
2023/04/19 07:01:50;;;;;;;2.08;1.10;;;;;;;13.67;72.83;99216.31;3140899;28;20081;-70
2023/04/19 07:03:23;;;;;;;3.40;1.55;;;;;;;13.75;72.35;99217.44;3137418;28;20118;-68
2023/04/19 07:04:55;;;;;;;2.03;1.20;;;;;;;13.83;72.13;99217.75;3141584;28;20111;-70
2023/04/19 07:06:26;;;;;;;3.80;1.45;;;;;;;13.78;71.26;99209.41;3138817;28;20159;-69
2023/04/19 07:07:58;;;;;;;2.65;1.45;;;;;;;13.69;70.88;99180.38;3135410;28;20129;-70
2023/04/19 07:09:30;;;;;;;3.63;1.23;;;;;;;14.00;71.21;99221.03;3134690;28;20128;-73
2023/04/19 07:11:02;;;;;;;2.65;1.42;;;;;;;14.07;70.94;99219.66;3145217;28;20059;-71
2023/04/19 07:12:34;;;;;;;2.05;0.93;;;;;;;14.14;70.66;99220.06;3136460;28;20059;-72
2023/04/19 07:14:06;;;;;;;2.80;1.35;;;;;;;14.24;70.61;99216.72;3140968;28;20049;-73